createdAt,value
2019-05-06T00:03:13.923Z,50.79
2019-05-06T00:08:15.977Z,50.62
2019-05-06T00:13:18.115Z,50.62
2019-05-06T00:18:19.477Z,51.24
2019-05-06T00:23:21.701Z,51.20
2019-05-06T00:28:26.683Z,51.33
2019-05-06T00:33:28.149Z,50.94
2019-05-06T00:38:29.484Z,50.80
2019-05-06T00:43:31.585Z,50.99
2019-05-06T00:48:34.094Z,50.49
2019-05-06T00:53:35.133Z,50.55
2019-05-06T00:58:36.427Z,50.53
2019-05-06T01:03:37.806Z,50.70
2019-05-06T01:08:39.162Z,50.57
2019-05-06T01:13:41.430Z,50.41
2019-05-06T01:18:43.483Z,51.17
2019-05-06T01:23:44.177Z,51.35
2019-05-06T01:28:45.547Z,50.54
2019-05-06T01:33:46.927Z,50.49
2019-05-06T01:38:48.282Z,51.25
2019-05-06T01:43:49.625Z,50.57
2019-05-06T01:48:50.961Z,50.58
2019-05-06T01:53:54.186Z,50.65
2019-05-06T01:58:53.784Z,50.42
2019-05-06T02:03:55.064Z,50.46
2019-05-06T02:08:56.400Z,50.52
2019-05-06T02:13:58.487Z,51.16
2019-05-06T02:19:00.577Z,51.21
2019-05-06T02:24:08.259Z,50.51
2019-05-06T02:29:11.543Z,50.94
2019-05-06T02:34:15.864Z,51.33
2019-05-06T02:39:17.284Z,51.33
2019-05-06T02:44:19.350Z,51.12
2019-05-06T02:49:35.637Z,50.96
2019-05-06T02:54:36.925Z,50.91
2019-05-06T02:59:38.257Z,51.92
2019-05-06T03:04:39.582Z,51.55
2019-05-06T03:09:40.895Z,51.65
2019-05-06T03:14:43.629Z,52.47
2019-05-06T03:19:46.005Z,53.16
2019-05-06T03:24:44.975Z,54.21
2019-05-06T03:29:46.327Z,53.92
2019-05-06T03:35:07.745Z,53.23
2019-05-06T03:39:49.025Z,53.68
2019-05-06T03:44:52.968Z,53.71
2019-05-06T03:49:54.476Z,52.89
2019-05-06T03:54:53.862Z,54.00
2019-05-06T03:59:55.171Z,53.91
2019-05-06T04:04:57.034Z,54.16
2019-05-06T04:09:57.863Z,52.91
2019-05-06T04:14:59.222Z,53.56
2019-05-06T04:20:03.980Z,52.64
2019-05-06T04:25:09.405Z,52.15
2019-05-06T04:30:13.264Z,52.20
2019-05-06T04:35:13.461Z,53.00
2019-05-06T04:40:13.695Z,53.17
2019-05-06T04:45:17.365Z,52.59
2019-05-06T04:50:16.423Z,52.28
2019-05-06T04:55:17.785Z,51.70
2019-05-06T05:00:19.122Z,51.53
2019-05-06T05:05:23.148Z,51.64
2019-05-06T05:10:23.452Z,51.57
2019-05-06T05:20:57.413Z,52.34
2019-05-06T05:25:58.750Z,51.17
2019-05-06T05:31:00.105Z,50.69
2019-05-06T05:36:02.071Z,51.41
2019-05-06T05:41:03.167Z,50.69
2019-05-06T05:46:04.154Z,52.05
2019-05-06T05:51:05.537Z,52.95
2019-05-06T05:56:06.842Z,50.38
2019-05-06T06:01:08.210Z,50.40
2019-05-06T06:06:09.557Z,50.90
2019-05-06T06:11:12.250Z,52.38
2019-05-06T06:16:17.802Z,50.35
2019-05-06T06:21:27.650Z,51.59
2019-05-06T06:26:23.578Z,51.01
2019-05-06T06:31:25.738Z,50.90
2019-05-06T06:36:29.052Z,49.92
2019-05-06T06:41:32.214Z,49.44
2019-05-06T06:46:32.407Z,48.26
2019-05-06T06:51:33.282Z,48.99
2019-05-06T07:02:02.818Z,46.98
2019-05-06T07:07:03.761Z,47.58
2019-05-06T07:12:05.241Z,47.72
2019-05-06T07:17:06.565Z,47.04
2019-05-06T07:22:07.929Z,47.19
2019-05-06T07:27:12.409Z,46.83
2019-05-06T07:32:12.275Z,45.36
2019-05-06T07:37:13.737Z,44.41
2019-05-06T07:42:16.849Z,41.91
2019-05-06T07:47:23.771Z,42.74
2019-05-06T07:52:23.198Z,42.70
2019-05-06T07:57:24.497Z,42.80
2019-05-06T08:02:26.618Z,41.70
2019-05-06T08:07:28.034Z,42.45
2019-05-06T08:12:29.376Z,40.57
2019-05-06T08:17:32.928Z,39.76
2019-05-06T08:28:03.433Z,40.14
2019-05-06T08:33:04.826Z,41.24
2019-05-06T08:38:06.177Z,38.58
2019-05-06T08:43:07.516Z,36.11
2019-05-06T08:48:09.453Z,37.38
2019-05-06T08:58:44.240Z,37.13
2019-05-06T09:03:46.488Z,37.50
2019-05-06T09:08:48.065Z,36.21
2019-05-06T09:13:49.429Z,35.89
2019-05-06T09:18:53.088Z,35.89
2019-05-06T09:23:53.144Z,35.01
2019-05-06T09:28:53.526Z,36.54
2019-05-06T09:33:55.621Z,35.21
2019-05-06T09:38:56.985Z,34.49
2019-05-06T09:43:58.332Z,32.64
2019-05-06T09:49:07.714Z,33.09
2019-05-06T09:54:09.067Z,33.75
2019-05-06T09:59:12.767Z,32.45
2019-05-06T10:04:13.089Z,33.00
2019-05-06T10:09:15.907Z,31.63
2019-05-06T10:14:14.606Z,31.22
2019-05-06T10:19:15.970Z,30.71
2019-05-06T10:24:17.331Z,30.49
2019-05-06T10:29:22.449Z,29.97
2019-05-06T10:34:23.865Z,30.36
2019-05-06T10:39:25.322Z,31.32
2019-05-06T10:44:45.359Z,31.54
2019-05-06T10:49:46.680Z,30.43
2019-05-06T10:54:48.010Z,30.54
2019-05-06T10:59:49.470Z,31.15
2019-05-06T11:04:52.830Z,31.11
2019-05-06T11:09:53.471Z,30.04
2019-05-06T11:14:55.845Z,32.28
2019-05-06T11:19:56.140Z,32.68
2019-05-06T11:24:57.501Z,32.46
2019-05-06T11:29:58.846Z,32.73
2019-05-06T11:35:03.480Z,32.28
2019-05-06T11:40:02.399Z,30.82
2019-05-06T11:45:03.770Z,30.73
2019-05-06T11:50:06.181Z,31.44
2019-05-06T11:55:08.345Z,31.33
2019-05-06T12:00:10.350Z,32.09
2019-05-06T12:05:11.442Z,31.54
2019-05-06T12:10:13.037Z,32.04
2019-05-06T12:15:14.323Z,33.62
2019-05-06T12:20:16.422Z,33.30
2019-05-06T12:25:18.515Z,33.33
2019-05-06T12:30:19.976Z,33.83
2019-05-06T12:35:21.338Z,33.82
2019-05-06T12:40:22.751Z,31.95
2019-05-06T12:45:24.142Z,32.58
2019-05-06T12:50:25.515Z,31.21
2019-05-06T12:55:27.949Z,30.67
2019-05-06T13:00:29.315Z,32.24
2019-05-06T13:05:31.946Z,33.61
2019-05-06T13:10:33.525Z,30.95
2019-05-06T13:15:34.494Z,32.83
2019-05-06T13:20:36.596Z,33.33
2019-05-06T13:25:38.013Z,33.50
2019-05-06T13:30:39.389Z,34.29
2019-05-06T13:35:41.920Z,32.90
2019-05-06T13:40:54.096Z,31.95
2019-05-06T13:45:46.234Z,31.79
2019-05-06T13:50:47.597Z,31.88
2019-05-06T13:55:49.468Z,32.31
2019-05-06T14:00:51.977Z,30.33
2019-05-06T14:05:52.235Z,29.36
2019-05-06T14:10:59.588Z,30.03
2019-05-06T14:15:55.749Z,29.91
2019-05-06T14:20:57.086Z,29.91
2019-05-06T14:26:03.957Z,30.47
2019-05-06T14:36:33.680Z,30.99
2019-05-06T14:41:35.054Z,30.02
2019-05-06T14:46:43.214Z,29.27
2019-05-06T14:51:44.570Z,29.52
2019-05-06T15:02:18.272Z,34.11
2019-05-06T15:07:21.907Z,32.55
2019-05-06T15:12:22.965Z,33.36
2019-05-06T15:17:23.345Z,33.30
2019-05-06T15:22:24.676Z,33.67
2019-05-06T15:27:26.793Z,33.13
2019-05-06T15:32:28.168Z,34.23
2019-05-06T15:37:43.320Z,32.70
2019-05-06T15:42:44.652Z,32.97
2019-05-06T15:47:46.006Z,32.25
2019-05-06T15:52:47.334Z,31.47
2019-05-06T15:57:48.766Z,34.32
2019-05-06T16:02:52.966Z,35.12
2019-05-06T16:07:57.460Z,31.72
2019-05-06T16:12:59.616Z,31.75
2019-05-06T16:18:02.233Z,31.60
2019-05-06T16:23:08.338Z,30.91
2019-05-06T16:28:09.710Z,31.20
2019-05-06T16:33:12.149Z,32.69
2019-05-06T16:38:13.130Z,32.92
2019-05-06T16:43:13.839Z,36.98
2019-05-06T16:48:15.926Z,37.62
2019-05-06T16:53:17.289Z,37.59
2019-05-06T16:58:19.413Z,38.40
2019-05-06T17:03:29.165Z,38.09
2019-05-06T17:08:33.343Z,40.96
2019-05-06T17:13:33.998Z,42.04
2019-05-06T17:18:34.132Z,45.44
2019-05-06T17:23:35.495Z,47.19
2019-05-06T17:28:41.664Z,47.11
2019-05-06T17:33:43.061Z,46.63
2019-05-06T17:38:48.030Z,46.83
2019-05-06T17:43:49.373Z,47.01
2019-05-06T17:54:22.149Z,46.43
2019-05-06T17:59:22.154Z,46.78
2019-05-06T18:04:24.247Z,47.77
2019-05-06T18:09:25.587Z,47.46
2019-05-06T18:14:27.691Z,47.31
2019-05-06T18:19:29.056Z,45.27
2019-05-06T18:24:30.479Z,45.80
2019-05-06T18:29:33.498Z,45.84
2019-05-06T18:34:33.390Z,45.23
2019-05-06T18:39:34.638Z,46.04
2019-05-06T18:44:36.016Z,45.05
2019-05-06T18:49:37.444Z,44.02
2019-05-06T18:54:38.759Z,44.55
2019-05-06T18:59:42.070Z,44.86
2019-05-06T19:04:41.922Z,44.63
2019-05-06T19:09:43.923Z,45.91
2019-05-06T19:14:45.288Z,45.10
2019-05-06T19:19:46.596Z,45.50
2019-05-06T19:24:47.915Z,45.64
2019-05-06T19:29:49.306Z,45.60
2019-05-06T19:34:52.841Z,45.44
2019-05-06T19:39:52.540Z,45.78
2019-05-06T19:44:54.066Z,45.79
2019-05-06T19:49:56.101Z,45.36
2019-05-06T19:54:57.421Z,45.53
2019-05-06T19:59:58.738Z,46.19
2019-05-06T20:05:03.189Z,46.12
2019-05-06T20:10:14.121Z,46.49
2019-05-06T20:15:22.265Z,46.89
2019-05-06T20:20:23.600Z,46.96
2019-05-06T20:25:25.782Z,46.55
2019-05-06T20:30:27.184Z,46.69
2019-05-06T20:35:52.422Z,46.89
2019-05-06T20:40:51.874Z,47.02
2019-05-06T20:45:55.427Z,46.95
2019-05-06T20:51:00.159Z,47.13
2019-05-06T20:56:05.241Z,47.05
2019-05-06T21:01:08.726Z,47.35
2019-05-06T21:06:14.181Z,47.25
2019-05-06T21:11:26.542Z,47.22
2019-05-06T21:16:24.293Z,47.24
2019-05-06T21:21:28.603Z,47.36
2019-05-06T21:26:33.128Z,47.77
2019-05-06T21:31:35.692Z,48.18
2019-05-06T21:36:42.058Z,47.98
2019-05-06T21:41:42.737Z,47.84
2019-05-06T21:46:45.255Z,48.20
2019-05-06T21:51:50.351Z,48.53
2019-05-06T21:56:53.358Z,48.74
2019-05-06T22:01:54.539Z,48.81
2019-05-06T22:06:55.892Z,48.71
2019-05-06T22:11:57.861Z,48.60
2019-05-06T22:16:59.232Z,48.51
2019-05-06T22:22:00.580Z,48.70
2019-05-06T22:27:02.864Z,48.63
2019-05-06T22:32:03.315Z,48.66
2019-05-06T22:37:04.639Z,48.86
2019-05-06T22:42:05.950Z,48.88
2019-05-06T22:47:07.285Z,49.12
2019-05-06T22:52:09.053Z,49.56
2019-05-06T22:57:12.032Z,49.21
2019-05-06T23:02:13.720Z,49.75
2019-05-06T23:07:15.028Z,49.41
2019-05-06T23:12:16.369Z,49.60
2019-05-06T23:17:17.697Z,49.69
2019-05-06T23:22:19.745Z,50.03
2019-05-06T23:27:23.279Z,50.00
2019-05-06T23:32:22.993Z,50.43
2019-05-06T23:37:23.724Z,50.19
2019-05-06T23:42:43.620Z,50.64
2019-05-06T23:48:04.448Z,50.44
2019-05-06T23:53:24.340Z,50.54
2019-05-06T23:58:25.402Z,50.77
